createdAt,value
2023-04-27T00:01:39.773Z,45.50
2023-04-27T00:04:07.448Z,45.30
2023-04-27T00:06:34.603Z,45.20
2023-04-27T00:09:01.496Z,46.00
2023-04-27T00:11:28.328Z,45.50
2023-04-27T00:41:05.841Z,45.30
2023-04-27T00:43:32.829Z,45.20
2023-04-27T00:46:00.652Z,45.30
2023-04-27T00:48:27.912Z,45.30
2023-04-27T00:50:54.827Z,45.30
2023-04-27T00:53:21.822Z,45.00
2023-04-27T00:55:48.551Z,45.30
2023-04-27T00:58:15.655Z,45.30
2023-04-27T01:00:42.823Z,45.40
2023-04-27T01:03:09.996Z,45.20
2023-04-27T01:05:38.005Z,45.40
2023-04-27T01:08:05.304Z,45.40
2023-04-27T01:10:32.020Z,45.50
2023-04-27T01:20:30.500Z,45.60
2023-04-27T01:22:58.549Z,45.70
2023-04-27T01:30:22.579Z,45.60
2023-04-27T01:32:50.087Z,45.80
2023-04-27T01:35:17.236Z,46.20
2023-04-27T01:37:44.092Z,46.20
2023-04-27T01:40:11.891Z,46.00
2023-04-27T01:42:38.715Z,45.80
2023-04-27T01:45:06.096Z,45.90
2023-04-27T02:29:20.841Z,45.90
2023-04-27T02:31:48.070Z,46.20
2023-04-27T02:34:15.868Z,46.20
2023-04-27T02:36:42.606Z,46.00
2023-04-27T02:39:09.317Z,46.00
2023-04-27T02:41:36.085Z,46.10
2023-04-27T02:44:02.812Z,46.30
2023-04-27T02:46:29.569Z,46.20
2023-04-27T02:48:56.540Z,46.10
2023-04-27T02:51:23.257Z,46.10
2023-04-27T02:53:50.078Z,46.10
2023-04-27T02:56:17.033Z,46.20
2023-04-27T02:58:44.837Z,46.30
2023-04-27T03:01:11.931Z,46.20
2023-04-27T03:03:39.010Z,46.20
2023-04-27T03:06:06.126Z,46.30
2023-04-27T03:08:33.042Z,46.30
2023-04-27T03:10:59.731Z,46.20
2023-04-27T03:13:26.569Z,46.10
2023-04-27T03:15:53.245Z,46.20
2023-04-27T03:18:19.973Z,46.40
2023-04-27T03:20:46.928Z,46.40
2023-04-27T03:23:13.588Z,46.30
2023-04-27T03:25:43.377Z,46.50
2023-04-27T03:28:10.046Z,46.50
2023-04-27T03:30:39.463Z,46.80
2023-04-27T03:33:06.295Z,46.80
2023-04-27T03:35:32.962Z,46.80
2023-04-27T03:37:59.607Z,46.90
2023-04-27T03:40:26.357Z,47.50
2023-04-27T03:42:53.170Z,47.00
2023-04-27T03:45:22.331Z,46.90
2023-04-27T03:47:49.056Z,46.90
2023-04-27T03:50:16.276Z,46.80
2023-04-27T03:52:42.924Z,46.80
2023-04-27T03:55:09.784Z,46.70
2023-04-27T03:57:36.528Z,46.80
2023-04-27T04:00:07.369Z,47.00
2023-04-27T04:02:34.395Z,47.10
2023-04-27T04:05:01.203Z,47.20
2023-04-27T04:07:27.991Z,47.30
2023-04-27T04:09:54.619Z,47.40
2023-04-27T04:12:21.288Z,47.30
2023-04-27T04:14:49.149Z,47.30
2023-04-27T04:17:16.346Z,47.30
2023-04-27T04:19:43.186Z,47.30
2023-04-27T04:22:09.871Z,47.20
2023-04-27T04:24:37.590Z,47.20
2023-04-27T04:27:04.655Z,47.20
2023-04-27T04:29:31.348Z,47.10
2023-04-27T04:31:58.121Z,47.10
2023-04-27T04:34:24.954Z,47.30
2023-04-27T04:36:51.823Z,47.30
2023-04-27T04:39:22.233Z,47.40
2023-04-27T04:41:49.487Z,47.90
2023-04-27T04:44:16.431Z,47.50
2023-04-27T04:46:43.299Z,47.50
2023-04-27T04:49:10.021Z,47.70
2023-04-27T04:51:37.394Z,47.80
2023-04-27T04:54:04.168Z,47.80
2023-04-27T04:56:30.943Z,47.70
2023-04-27T04:58:57.640Z,47.80
2023-04-27T05:01:24.405Z,47.80
2023-04-27T05:03:51.155Z,47.90
2023-04-27T05:06:18.022Z,48.00
2023-04-27T05:08:44.764Z,48.00
2023-04-27T05:11:11.570Z,48.10
2023-04-27T05:13:41.297Z,48.20
2023-04-27T05:16:08.543Z,48.60
2023-04-27T05:18:36.315Z,48.80
2023-04-27T05:21:03.063Z,48.90
2023-04-27T05:23:29.719Z,48.70
2023-04-27T05:25:56.413Z,48.50
2023-04-27T05:28:24.256Z,48.10
2023-04-27T05:30:52.272Z,47.80
2023-04-27T05:33:18.979Z,47.60
2023-04-27T05:35:45.816Z,47.50
2023-04-27T05:38:17.471Z,47.10
2023-04-27T06:25:13.716Z,47.40
2023-04-27T06:27:40.789Z,45.50
2023-04-27T06:30:08.121Z,45.90
2023-04-27T06:32:34.856Z,46.10
2023-04-27T06:35:02.118Z,46.20
2023-04-27T06:37:28.884Z,46.00
2023-04-27T06:39:56.211Z,45.90
2023-04-27T06:42:22.999Z,46.40
2023-04-27T06:44:53.290Z,46.20
2023-04-27T06:47:19.995Z,46.20
2023-04-27T06:49:48.513Z,46.20
2023-04-27T06:52:16.470Z,45.90
2023-04-27T06:54:43.520Z,45.30
2023-04-27T06:57:10.234Z,45.50
2023-04-27T06:59:37.012Z,45.60
2023-04-27T07:02:03.771Z,44.80
2023-04-27T07:04:30.745Z,45.60
2023-04-27T07:06:57.620Z,46.00
2023-04-27T07:09:27.754Z,45.60
2023-04-27T07:11:55.193Z,45.60
2023-04-27T07:14:22.460Z,46.30
2023-04-27T07:16:49.180Z,45.40
2023-04-27T07:19:16.190Z,44.80
2023-04-27T07:21:43.093Z,44.00
2023-04-27T07:24:09.739Z,43.60
2023-04-27T07:26:36.988Z,43.50
2023-04-27T07:29:11.145Z,44.30
2023-04-27T07:31:46.282Z,44.60
2023-04-27T07:34:13.456Z,43.90
2023-04-27T07:36:40.300Z,43.80
2023-04-27T07:39:08.104Z,44.10
2023-04-27T07:41:35.599Z,44.20
2023-04-27T07:44:02.603Z,43.60
2023-04-27T07:46:31.712Z,43.30
2023-04-27T07:49:00.369Z,43.00
2023-04-27T07:51:28.806Z,43.60
2023-04-27T07:53:56.367Z,44.00
2023-04-27T07:56:23.064Z,43.60
2023-04-27T07:58:49.719Z,43.50
2023-04-27T08:01:17.611Z,44.20
2023-04-27T08:03:46.043Z,43.80
2023-04-27T08:06:13.262Z,44.40
2023-04-27T08:08:40.036Z,43.70
2023-04-27T08:11:10.119Z,42.70
2023-04-27T08:13:37.064Z,42.40
2023-04-27T08:16:04.130Z,42.80
2023-04-27T08:18:30.846Z,42.10
2023-04-27T08:20:57.598Z,42.30
2023-04-27T08:23:28.185Z,42.20
2023-04-27T08:25:54.957Z,41.20
2023-04-27T08:28:23.157Z,41.40
2023-04-27T08:30:50.032Z,41.60
2023-04-27T08:33:16.798Z,41.20
2023-04-27T08:35:43.533Z,40.60
2023-04-27T08:38:10.639Z,40.20
2023-04-27T08:40:42.885Z,39.60
2023-04-27T08:43:09.639Z,40.10
2023-04-27T08:45:36.446Z,39.80
2023-04-27T08:48:03.402Z,39.40
2023-04-27T08:50:31.486Z,40.10
2023-04-27T08:52:58.249Z,40.60
2023-04-27T08:55:25.036Z,39.00
2023-04-27T08:57:58.535Z,39.30
2023-04-27T10:35:54.013Z,35.90
2023-04-27T10:38:27.119Z,36.70
2023-04-27T10:41:01.344Z,37.50
2023-04-27T10:43:30.713Z,36.70
2023-04-27T10:46:12.232Z,35.40
2023-04-27T10:48:43.518Z,35.60
2023-04-27T10:51:14.835Z,35.30
2023-04-27T10:53:41.946Z,34.80
2023-04-27T10:56:09.093Z,35.10
2023-04-27T11:01:08.641Z,35.60
2023-04-27T11:03:37.502Z,35.20
2023-04-27T11:06:05.944Z,35.30
2023-04-27T12:25:32.189Z,35.10
2023-04-27T12:27:58.875Z,34.30
2023-04-27T12:47:58.181Z,35.70
2023-04-27T12:50:24.582Z,35.70
2023-04-27T12:55:31.364Z,35.00
2023-04-27T19:15:01.613Z,35.90
2023-04-27T19:17:29.501Z,31.30
2023-04-27T19:19:56.572Z,31.30
2023-04-27T19:22:23.400Z,31.70
2023-04-27T19:24:50.351Z,31.60
2023-04-27T19:27:17.210Z,31.80
2023-04-27T19:29:53.821Z,31.40
2023-04-27T19:32:21.294Z,31.50
2023-04-27T19:34:49.055Z,31.80
2023-04-27T19:37:16.023Z,31.90
2023-04-27T19:39:42.748Z,31.70
2023-04-27T19:42:09.619Z,31.50
2023-04-27T19:44:36.282Z,31.70
2023-04-27T19:47:03.101Z,31.50
2023-04-27T19:49:33.555Z,32.20
2023-04-27T19:52:00.695Z,32.20
2023-04-27T19:54:27.542Z,32.20
2023-04-27T19:56:55.007Z,32.00
2023-04-27T19:59:22.071Z,32.20
2023-04-27T20:01:48.890Z,32.20
2023-04-27T20:04:18.010Z,32.10
2023-04-27T20:06:45.272Z,32.10
2023-04-27T20:09:12.126Z,32.10
2023-04-27T20:11:39.309Z,32.30
2023-04-27T20:14:06.403Z,32.40
2023-04-27T20:16:33.126Z,31.90
2023-04-27T20:18:59.864Z,32.20
2023-04-27T20:21:27.975Z,32.40
2023-04-27T20:23:54.809Z,32.20
2023-04-27T20:26:22.528Z,32.20
2023-04-27T20:28:49.611Z,32.30
2023-04-27T20:31:16.506Z,32.50
2023-04-27T20:33:43.364Z,32.30
2023-04-27T20:36:17.325Z,32.60
2023-04-27T20:38:46.080Z,32.40
2023-04-27T20:41:12.876Z,32.30
2023-04-27T20:43:40.098Z,32.40
2023-04-27T20:46:07.948Z,32.70
2023-04-27T20:48:34.752Z,32.10
2023-04-27T20:51:01.739Z,32.30
2023-04-27T20:53:30.047Z,32.00
2023-04-27T20:55:57.053Z,32.10
2023-04-27T20:58:23.916Z,32.20
2023-04-27T21:00:51.062Z,32.60
2023-04-27T21:03:17.924Z,32.80
2023-04-27T21:05:45.765Z,33.20
2023-04-27T21:08:13.541Z,33.00
2023-04-27T21:10:40.804Z,33.10
2023-04-27T21:13:07.536Z,33.10
2023-04-27T21:15:34.319Z,33.30
2023-04-27T21:18:01.116Z,34.00
2023-04-27T21:20:27.876Z,33.20
2023-04-27T21:22:56.428Z,33.20
2023-04-27T21:25:23.887Z,33.50
2023-04-27T21:27:51.788Z,33.70
2023-04-27T21:30:18.511Z,33.80
2023-04-27T21:32:45.251Z,34.10
2023-04-27T21:35:12.043Z,34.10
2023-04-27T21:37:38.766Z,34.20
2023-04-27T21:40:06.365Z,34.70
2023-04-27T21:42:33.120Z,34.60
2023-04-27T21:44:59.913Z,34.70
2023-04-27T21:47:26.834Z,34.90
2023-04-27T21:49:54.674Z,34.90
2023-04-27T21:52:21.740Z,34.60
2023-04-27T21:54:48.576Z,34.80
2023-04-27T21:57:16.539Z,34.80
2023-04-27T21:59:43.871Z,35.00
2023-04-27T22:02:10.604Z,35.00
2023-04-27T22:04:38.421Z,35.00
2023-04-27T22:07:10.511Z,35.10
2023-04-27T22:09:38.430Z,35.10
2023-04-27T22:12:05.712Z,35.10
2023-04-27T22:14:32.454Z,35.10
2023-04-27T22:17:00.900Z,35.30
2023-04-27T22:19:28.667Z,35.10
2023-04-27T22:34:13.296Z,35.20
2023-04-27T22:36:40.510Z,35.40
2023-04-27T22:39:07.375Z,35.50
2023-04-27T22:41:34.071Z,35.70
2023-04-27T22:44:00.938Z,35.70
2023-04-27T22:46:27.686Z,35.60
2023-04-27T22:48:54.411Z,35.70
2023-04-27T22:51:21.699Z,35.50
2023-04-27T22:53:48.876Z,35.80
2023-04-27T22:56:15.563Z,36.00
2023-04-27T22:58:42.221Z,35.90
2023-04-27T23:01:08.966Z,35.90
2023-04-27T23:03:35.882Z,36.00
2023-04-27T23:06:02.725Z,36.00
2023-04-27T23:08:29.582Z,35.80
2023-04-27T23:10:56.881Z,36.10
2023-04-27T23:13:27.539Z,36.20
2023-04-27T23:15:54.430Z,36.20
2023-04-27T23:18:21.614Z,36.30
2023-04-27T23:20:55.539Z,36.40
2023-04-27T23:23:22.492Z,36.10
2023-04-27T23:25:49.284Z,36.00
2023-04-27T23:28:16.151Z,36.10
2023-04-27T23:30:42.996Z,36.40
2023-04-27T23:33:09.737Z,36.30
2023-04-27T23:35:36.647Z,36.60
2023-04-27T23:38:03.314Z,36.40
2023-04-27T23:40:30.088Z,36.40
2023-04-27T23:42:57.129Z,36.60
2023-04-27T23:45:23.782Z,36.50
2023-04-27T23:47:50.796Z,36.50
2023-04-27T23:50:18.648Z,36.40
2023-04-27T23:52:45.317Z,36.40
2023-04-27T23:55:13.439Z,36.40
2023-04-27T23:57:40.135Z,36.60
